sensor_id;sensor_type;location;lat;lon;timestamp;pressure;altitude;pressure_sealevel;temperature;humidity
32747;BME280;19118;50.860;13.662;2024-02-15T00:03:25;96773.03;;;10.49;100.00
32747;BME280;19118;50.860;13.662;2024-02-15T00:08:25;96768.78;;;10.48;100.00
32747;BME280;19118;50.860;13.662;2024-02-15T00:13:26;96754.13;;;10.45;100.00
32747;BME280;19118;50.860;13.662;2024-02-15T00:18:27;96769.59;;;10.48;100.00
32747;BME280;19118;50.860;13.662;2024-02-15T00:23:27;96768.75;;;10.41;100.00
32747;BME280;19118;50.860;13.662;2024-02-15T00:28:28;96766.75;;;10.50;100.00
32747;BME280;19118;50.860;13.662;2024-02-15T00:33:28;96765.31;;;10.61;100.00
32747;BME280;19118;50.860;13.662;2024-02-15T00:38:31;96769.19;;;10.58;100.00
32747;BME280;19118;50.860;13.662;2024-02-15T00:43:34;96773.88;;;10.56;100.00
32747;BME280;19118;50.860;13.662;2024-02-15T00:48:35;96778.16;;;10.57;100.00
32747;BME280;19118;50.860;13.662;2024-02-15T00:53:35;96777.72;;;10.60;100.00
32747;BME280;19118;50.860;13.662;2024-02-15T00:58:35;96769.19;;;10.78;100.00
32747;BME280;19118;50.860;13.662;2024-02-15T01:03:36;96778.94;;;10.91;100.00
32747;BME280;19118;50.860;13.662;2024-02-15T01:08:36;96774.06;;;10.74;100.00
32747;BME280;19118;50.860;13.662;2024-02-15T01:13:37;96772.44;;;10.60;100.00
32747;BME280;19118;50.860;13.662;2024-02-15T01:18:37;96771.22;;;10.69;100.00
32747;BME280;19118;50.860;13.662;2024-02-15T01:23:38;96764.28;;;10.75;100.00
32747;BME280;19118;50.860;13.662;2024-02-15T01:28:38;96758.81;;;10.90;100.00
32747;BME280;19118;50.860;13.662;2024-02-15T01:33:39;96735.00;;;10.90;100.00
32747;BME280;19118;50.860;13.662;2024-02-15T01:38:39;96732.56;;;10.82;100.00
32747;BME280;19118;50.860;13.662;2024-02-15T01:43:43;96727.47;;;10.73;100.00
32747;BME280;19118;50.860;13.662;2024-02-15T01:48:45;96701.66;;;10.69;100.00
32747;BME280;19118;50.860;13.662;2024-02-15T01:53:45;96690.41;;;10.93;100.00
32747;BME280;19118;50.860;13.662;2024-02-15T01:58:46;96687.00;;;10.73;100.00
32747;BME280;19118;50.860;13.662;2024-02-15T02:03:47;96684.13;;;10.88;100.00
32747;BME280;19118;50.860;13.662;2024-02-15T02:08:47;96677.19;;;10.93;100.00
32747;BME280;19118;50.860;13.662;2024-02-15T02:13:47;96674.38;;;10.88;100.00
32747;BME280;19118;50.860;13.662;2024-02-15T02:18:48;96677.59;;;10.97;100.00
32747;BME280;19118;50.860;13.662;2024-02-15T02:23:55;96676.84;;;10.76;100.00
32747;BME280;19118;50.860;13.662;2024-02-15T02:28:56;96672.75;;;10.81;100.00
32747;BME280;19118;50.860;13.662;2024-02-15T02:33:56;96662.16;;;10.81;100.00
32747;BME280;19118;50.860;13.662;2024-02-15T02:38:58;96670.28;;;10.86;100.00
32747;BME280;19118;50.860;13.662;2024-02-15T02:44:00;96660.97;;;10.76;100.00
32747;BME280;19118;50.860;13.662;2024-02-15T02:49:01;96663.78;;;10.88;100.00
32747;BME280;19118;50.860;13.662;2024-02-15T02:54:01;96653.16;;;10.95;100.00
32747;BME280;19118;50.860;13.662;2024-02-15T02:59:05;96652.75;;;11.04;100.00
32747;BME280;19118;50.860;13.662;2024-02-15T03:04:07;96655.38;;;10.98;100.00
32747;BME280;19118;50.860;13.662;2024-02-15T03:09:07;96657.22;;;11.04;100.00
32747;BME280;19118;50.860;13.662;2024-02-15T03:14:09;96667.03;;;10.90;100.00
32747;BME280;19118;50.860;13.662;2024-02-15T03:19:11;96657.03;;;10.99;100.00
32747;BME280;19118;50.860;13.662;2024-02-15T03:24:12;96659.59;;;11.19;100.00
32747;BME280;19118;50.860;13.662;2024-02-15T03:29:12;96653.50;;;11.18;100.00
32747;BME280;19118;50.860;13.662;2024-02-15T03:34:12;96663.75;;;10.95;100.00
32747;BME280;19118;50.860;13.662;2024-02-15T03:39:14;96651.09;;;11.10;100.00
32747;BME280;19118;50.860;13.662;2024-02-15T03:44:15;96666.94;;;11.23;100.00
32747;BME280;19118;50.860;13.662;2024-02-15T03:49:15;96668.13;;;11.21;100.00
32747;BME280;19118;50.860;13.662;2024-02-15T03:54:15;96661.44;;;11.18;100.00
32747;BME280;19118;50.860;13.662;2024-02-15T03:59:16;96666.34;;;11.08;100.00
32747;BME280;19118;50.860;13.662;2024-02-15T04:04:16;96666.13;;;11.09;100.00
32747;BME280;19118;50.860;13.662;2024-02-15T04:09:17;96660.00;;;11.22;100.00
32747;BME280;19118;50.860;13.662;2024-02-15T04:14:17;96667.31;;;11.33;100.00
32747;BME280;19118;50.860;13.662;2024-02-15T04:19:18;96678.22;;;11.44;100.00
32747;BME280;19118;50.860;13.662;2024-02-15T04:24:22;96682.38;;;11.33;100.00
32747;BME280;19118;50.860;13.662;2024-02-15T04:29:23;96682.72;;;11.43;100.00
32747;BME280;19118;50.860;13.662;2024-02-15T04:34:23;96690.88;;;11.42;100.00
32747;BME280;19118;50.860;13.662;2024-02-15T04:39:23;96691.81;;;11.54;100.00
32747;BME280;19118;50.860;13.662;2024-02-15T04:44:24;96699.78;;;11.54;100.00
32747;BME280;19118;50.860;13.662;2024-02-15T04:49:27;96704.69;;;11.50;100.00
32747;BME280;19118;50.860;13.662;2024-02-15T04:54:29;96709.97;;;11.57;100.00
32747;BME280;19118;50.860;13.662;2024-02-15T04:59:29;96697.53;;;11.57;100.00
32747;BME280;19118;50.860;13.662;2024-02-15T05:04:30;96712.34;;;11.65;100.00
32747;BME280;19118;50.860;13.662;2024-02-15T05:09:36;96719.09;;;11.61;100.00
32747;BME280;19118;50.860;13.662;2024-02-15T05:14:36;96717.25;;;11.68;100.00
32747;BME280;19118;50.860;13.662;2024-02-15T05:19:37;96716.28;;;11.56;100.00
32747;BME280;19118;50.860;13.662;2024-02-15T05:24:37;96708.28;;;11.69;100.00
32747;BME280;19118;50.860;13.662;2024-02-15T05:29:40;96697.97;;;11.48;100.00
32747;BME280;19118;50.860;13.662;2024-02-15T05:34:43;96677.81;;;11.47;100.00
32747;BME280;19118;50.860;13.662;2024-02-15T05:39:43;96668.06;;;11.41;100.00
32747;BME280;19118;50.860;13.662;2024-02-15T05:44:45;96664.81;;;11.38;100.00
32747;BME280;19118;50.860;13.662;2024-02-15T05:49:46;96655.25;;;11.37;100.00
32747;BME280;19118;50.860;13.662;2024-02-15T05:54:47;96657.03;;;11.44;100.00
32747;BME280;19118;50.860;13.662;2024-02-15T05:59:47;96670.69;;;11.47;100.00
32747;BME280;19118;50.860;13.662;2024-02-15T06:04:49;96668.50;;;11.37;100.00
32747;BME280;19118;50.860;13.662;2024-02-15T06:09:49;96680.25;;;11.48;100.00
32747;BME280;19118;50.860;13.662;2024-02-15T06:14:50;96689.19;;;11.54;100.00
32747;BME280;19118;50.860;13.662;2024-02-15T06:19:51;96692.03;;;11.59;100.00
32747;BME280;19118;50.860;13.662;2024-02-15T06:24:51;96702.41;;;11.60;100.00
32747;BME280;19118;50.860;13.662;2024-02-15T06:29:51;96708.28;;;11.69;100.00
32747;BME280;19118;50.860;13.662;2024-02-15T06:35:10;96710.50;;;11.65;100.00
32747;BME280;19118;50.860;13.662;2024-02-15T06:40:29;96723.31;;;11.75;100.00
32747;BME280;19118;50.860;13.662;2024-02-15T06:45:31;96729.41;;;11.76;100.00
32747;BME280;19118;50.860;13.662;2024-02-15T06:50:32;96719.69;;;11.63;100.00
32747;BME280;19118;50.860;13.662;2024-02-15T06:55:32;96722.91;;;11.78;100.00
32747;BME280;19118;50.860;13.662;2024-02-15T07:00:33;96735.16;;;11.73;100.00
32747;BME280;19118;50.860;13.662;2024-02-15T07:05:34;96727.84;;;11.68;100.00
32747;BME280;19118;50.860;13.662;2024-02-15T07:10:37;96726.34;;;11.85;100.00
32747;BME280;19118;50.860;13.662;2024-02-15T07:15:38;96716.47;;;11.99;100.00
32747;BME280;19118;50.860;13.662;2024-02-15T07:20:39;96727.19;;;12.17;100.00
32747;BME280;19118;50.860;13.662;2024-02-15T07:25:41;96729.00;;;12.23;100.00
32747;BME280;19118;50.860;13.662;2024-02-15T07:30:41;96724.66;;;12.29;100.00
32747;BME280;19118;50.860;13.662;2024-02-15T07:35:42;96747.50;;;12.30;100.00
32747;BME280;19118;50.860;13.662;2024-02-15T07:40:43;96757.50;;;12.60;100.00
32747;BME280;19118;50.860;13.662;2024-02-15T07:45:44;96766.47;;;12.59;100.00
32747;BME280;19118;50.860;13.662;2024-02-15T07:50:44;96777.63;;;12.92;100.00
32747;BME280;19118;50.860;13.662;2024-02-15T07:55:44;96826.34;;;13.29;100.00
32747;BME280;19118;50.860;13.662;2024-02-15T08:00:45;96841.28;;;13.24;100.00
32747;BME280;19118;50.860;13.662;2024-02-15T08:05:46;96862.03;;;13.08;100.00
32747;BME280;19118;50.860;13.662;2024-02-15T08:10:47;96851.50;;;12.95;100.00
32747;BME280;19118;50.860;13.662;2024-02-15T08:15:51;96832.22;;;13.06;100.00
32747;BME280;19118;50.860;13.662;2024-02-15T08:20:52;96840.53;;;13.17;100.00
32747;BME280;19118;50.860;13.662;2024-02-15T08:25:53;96859.34;;;13.58;100.00
32747;BME280;19118;50.860;13.662;2024-02-15T08:30:57;96870.16;;;13.63;100.00
32747;BME280;19118;50.860;13.662;2024-02-15T08:35:57;96863.94;;;13.69;100.00
32747;BME280;19118;50.860;13.662;2024-02-15T08:40:58;96879.88;;;13.51;100.00
32747;BME280;19118;50.860;13.662;2024-02-15T08:45:58;96884.06;;;13.59;100.00
32747;BME280;19118;50.860;13.662;2024-02-15T08:50:59;96894.66;;;13.65;100.00
32747;BME280;19118;50.860;13.662;2024-02-15T08:55:59;96904.78;;;14.12;100.00
32747;BME280;19118;50.860;13.662;2024-02-15T09:01:00;96933.09;;;14.43;100.00
32747;BME280;19118;50.860;13.662;2024-02-15T09:06:00;96972.13;;;14.67;100.00
32747;BME280;19118;50.860;13.662;2024-02-15T09:11:03;96987.41;;;15.20;100.00
32747;BME280;19118;50.860;13.662;2024-02-15T09:16:04;97013.00;;;15.21;100.00
32747;BME280;19118;50.860;13.662;2024-02-15T09:21:05;97037.16;;;15.08;100.00
32747;BME280;19118;50.860;13.662;2024-02-15T09:26:05;97049.22;;;14.92;100.00
32747;BME280;19118;50.860;13.662;2024-02-15T09:31:05;97040.00;;;14.76;100.00
32747;BME280;19118;50.860;13.662;2024-02-15T09:36:06;97041.34;;;15.46;100.00
32747;BME280;19118;50.860;13.662;2024-02-15T09:41:06;97056.63;;;15.80;100.00
32747;BME280;19118;50.860;13.662;2024-02-15T09:46:07;97092.31;;;16.09;100.00
32747;BME280;19118;50.860;13.662;2024-02-15T09:51:08;97102.19;;;16.32;100.00
32747;BME280;19118;50.860;13.662;2024-02-15T09:56:13;97126.75;;;16.11;100.00
32747;BME280;19118;50.860;13.662;2024-02-15T10:01:15;97119.28;;;15.89;100.00
32747;BME280;19118;50.860;13.662;2024-02-15T10:06:16;97125.00;;;15.44;100.00
32747;BME280;19118;50.860;13.662;2024-02-15T10:11:18;97115.38;;;15.43;100.00
32747;BME280;19118;50.860;13.662;2024-02-15T10:16:20;97098.91;;;15.17;100.00
32747;BME280;19118;50.860;13.662;2024-02-15T10:21:26;97069.66;;;15.28;100.00
32747;BME280;19118;50.860;13.662;2024-02-15T10:26:28;97085.78;;;16.05;100.00
32747;BME280;19118;50.860;13.662;2024-02-15T10:31:29;97102.16;;;15.97;100.00
32747;BME280;19118;50.860;13.662;2024-02-15T10:36:29;97099.00;;;16.00;100.00
32747;BME280;19118;50.860;13.662;2024-02-15T10:41:30;97111.81;;;16.45;100.00
32747;BME280;19118;50.860;13.662;2024-02-15T10:46:30;97114.50;;;16.33;100.00
32747;BME280;19118;50.860;13.662;2024-02-15T10:51:31;97118.06;;;16.27;100.00
32747;BME280;19118;50.860;13.662;2024-02-15T10:56:37;97118.31;;;16.60;100.00
32747;BME280;19118;50.860;13.662;2024-02-15T11:01:43;97121.19;;;16.24;100.00
32747;BME280;19118;50.860;13.662;2024-02-15T11:06:45;97082.09;;;16.18;100.00
32747;BME280;19118;50.860;13.662;2024-02-15T11:11:46;97071.75;;;15.86;100.00
32747;BME280;19118;50.860;13.662;2024-02-15T11:16:48;97070.69;;;15.87;100.00
32747;BME280;19118;50.860;13.662;2024-02-15T11:21:55;97083.25;;;16.22;100.00
32747;BME280;19118;50.860;13.662;2024-02-15T11:26:59;97067.78;;;15.59;100.00
32747;BME280;19118;50.860;13.662;2024-02-15T11:32:03;97046.31;;;15.42;100.00
32747;BME280;19118;50.860;13.662;2024-02-15T11:37:05;97005.72;;;14.98;100.00
32747;BME280;19118;50.860;13.662;2024-02-15T11:42:25;96930.25;;;14.38;100.00
32747;BME280;19118;50.860;13.662;2024-02-15T11:47:25;96876.50;;;13.99;100.00
32747;BME280;19118;50.860;13.662;2024-02-15T11:52:26;96860.09;;;15.10;100.00
32747;BME280;19118;50.860;13.662;2024-02-15T11:57:27;96929.41;;;15.57;100.00
32747;BME280;19118;50.860;13.662;2024-02-15T12:02:36;96955.78;;;16.12;100.00
32747;BME280;19118;50.860;13.662;2024-02-15T12:07:55;96980.81;;;16.23;100.00
32747;BME280;19118;50.860;13.662;2024-02-15T12:13:17;97014.66;;;16.57;100.00
32747;BME280;19118;50.860;13.662;2024-02-15T12:18:36;97039.16;;;16.78;100.00
32747;BME280;19118;50.860;13.662;2024-02-15T12:23:42;97059.41;;;17.02;100.00
32747;BME280;19118;50.860;13.662;2024-02-15T12:28:42;97069.66;;;16.94;100.00
32747;BME280;19118;50.860;13.662;2024-02-15T12:33:43;97080.44;;;17.10;100.00
32747;BME280;19118;50.860;13.662;2024-02-15T12:38:44;97074.19;;;16.93;100.00
32747;BME280;19118;50.860;13.662;2024-02-15T12:43:45;97076.00;;;17.04;100.00
32747;BME280;19118;50.860;13.662;2024-02-15T12:48:45;97064.22;;;16.65;100.00
32747;BME280;19118;50.860;13.662;2024-02-15T12:53:46;97059.41;;;17.02;100.00
32747;BME280;19118;50.860;13.662;2024-02-15T12:58:47;97057.88;;;17.06;100.00
32747;BME280;19118;50.860;13.662;2024-02-15T13:03:47;97071.44;;;17.16;100.00
32747;BME280;19118;50.860;13.662;2024-02-15T13:08:47;97078.34;;;17.01;100.00
32747;BME280;19118;50.860;13.662;2024-02-15T13:13:48;97084.72;;;17.11;100.00
32747;BME280;19118;50.860;13.662;2024-02-15T13:18:49;97077.00;;;17.27;100.00
32747;BME280;19118;50.860;13.662;2024-02-15T13:23:49;97076.41;;;17.53;100.00
32747;BME280;19118;50.860;13.662;2024-02-15T13:28:50;97083.38;;;17.54;100.00
32747;BME280;19118;50.860;13.662;2024-02-15T13:33:50;97102.09;;;17.26;100.00
32747;BME280;19118;50.860;13.662;2024-02-15T13:38:51;97096.22;;;17.12;100.00
32747;BME280;19118;50.860;13.662;2024-02-15T13:43:51;97081.56;;;17.14;100.00
32747;BME280;19118;50.860;13.662;2024-02-15T13:48:52;97084.91;;;16.70;100.00
32747;BME280;19118;50.860;13.662;2024-02-15T13:53:52;97079.88;;;16.62;100.00
32747;BME280;19118;50.860;13.662;2024-02-15T13:58:52;97074.22;;;16.81;100.00
32747;BME280;19118;50.860;13.662;2024-02-15T14:03:53;97057.50;;;17.14;100.00
32747;BME280;19118;50.860;13.662;2024-02-15T14:08:53;97076.34;;;17.48;100.00
32747;BME280;19118;50.860;13.662;2024-02-15T14:13:53;97080.75;;;17.42;100.00
32747;BME280;19118;50.860;13.662;2024-02-15T14:18:58;97078.91;;;17.71;100.00
32747;BME280;19118;50.860;13.662;2024-02-15T14:23:59;97081.03;;;17.69;100.00
32747;BME280;19118;50.860;13.662;2024-02-15T14:28:59;97094.00;;;17.78;100.00
32747;BME280;19118;50.860;13.662;2024-02-15T14:34:03;97077.22;;;17.54;100.00
32747;BME280;19118;50.860;13.662;2024-02-15T14:39:04;97077.31;;;17.30;100.00
32747;BME280;19118;50.860;13.662;2024-02-15T14:44:05;97074.69;;;17.18;100.00
32747;BME280;19118;50.860;13.662;2024-02-15T14:49:05;97065.19;;;17.11;100.00
32747;BME280;19118;50.860;13.662;2024-02-15T14:54:06;97070.81;;;16.86;100.00
32747;BME280;19118;50.860;13.662;2024-02-15T14:59:07;97060.75;;;16.76;100.00
32747;BME280;19118;50.860;13.662;2024-02-15T15:04:07;97046.34;;;16.66;100.00
32747;BME280;19118;50.860;13.662;2024-02-15T15:09:10;97039.28;;;16.36;100.00
32747;BME280;19118;50.860;13.662;2024-02-15T15:14:29;97029.19;;;16.38;100.00
32747;BME280;19118;50.860;13.662;2024-02-15T15:19:29;97014.69;;;16.22;100.00
32747;BME280;19118;50.860;13.662;2024-02-15T15:24:30;97005.88;;;15.98;100.00
32747;BME280;19118;50.860;13.662;2024-02-15T15:29:32;97006.31;;;15.72;100.00
32747;BME280;19118;50.860;13.662;2024-02-15T15:34:34;96995.13;;;15.52;100.00
32747;BME280;19118;50.860;13.662;2024-02-15T15:39:34;96984.66;;;15.38;100.00
32747;BME280;19118;50.860;13.662;2024-02-15T15:44:36;96970.94;;;15.23;100.00
32747;BME280;19118;50.860;13.662;2024-02-15T15:49:37;96965.84;;;14.92;100.00
32747;BME280;19118;50.860;13.662;2024-02-15T15:54:40;96955.28;;;14.55;100.00
32747;BME280;19118;50.860;13.662;2024-02-15T15:59:40;96933.47;;;14.28;100.00
32747;BME280;19118;50.860;13.662;2024-02-15T16:04:44;96922.88;;;14.03;100.00
32747;BME280;19118;50.860;13.662;2024-02-15T16:09:45;96898.16;;;13.84;100.00
32747;BME280;19118;50.860;13.662;2024-02-15T16:14:48;96881.94;;;13.67;100.00
32747;BME280;19118;50.860;13.662;2024-02-15T16:19:49;96881.63;;;13.57;100.00
32747;BME280;19118;50.860;13.662;2024-02-15T16:24:49;96860.97;;;13.41;100.00
32747;BME280;19118;50.860;13.662;2024-02-15T16:29:50;96845.88;;;13.35;100.00
32747;BME280;19118;50.860;13.662;2024-02-15T16:34:50;96844.78;;;13.18;100.00
32747;BME280;19118;50.860;13.662;2024-02-15T16:39:52;96836.66;;;13.12;100.00
32747;BME280;19118;50.860;13.662;2024-02-15T16:44:53;96829.09;;;12.91;100.00
32747;BME280;19118;50.860;13.662;2024-02-15T16:49:53;96827.28;;;12.85;100.00
32747;BME280;19118;50.860;13.662;2024-02-15T16:54:53;96820.69;;;12.94;100.00
32747;BME280;19118;50.860;13.662;2024-02-15T16:59:54;96824.31;;;12.75;100.00
32747;BME280;19118;50.860;13.662;2024-02-15T17:04:54;96811.63;;;12.77;100.00
32747;BME280;19118;50.860;13.662;2024-02-15T17:09:55;96792.19;;;12.58;100.00
32747;BME280;19118;50.860;13.662;2024-02-15T17:14:56;96788.88;;;12.63;100.00
32747;BME280;19118;50.860;13.662;2024-02-15T17:19:56;96799.75;;;12.54;100.00
32747;BME280;19118;50.860;13.662;2024-02-15T17:24:57;96808.16;;;12.45;100.00
32747;BME280;19118;50.860;13.662;2024-02-15T17:29:57;96805.50;;;12.51;100.00
32747;BME280;19118;50.860;13.662;2024-02-15T17:34:57;96798.91;;;12.29;100.00
32747;BME280;19118;50.860;13.662;2024-02-15T17:39:58;96797.72;;;12.18;100.00
32747;BME280;19118;50.860;13.662;2024-02-15T17:44:58;96787.44;;;11.97;100.00
32747;BME280;19118;50.860;13.662;2024-02-15T17:49:58;96773.66;;;11.75;100.00
32747;BME280;19118;50.860;13.662;2024-02-15T17:54:58;96750.28;;;11.59;100.00
32747;BME280;19118;50.860;13.662;2024-02-15T17:59:59;96732.78;;;11.58;100.00
32747;BME280;19118;50.860;13.662;2024-02-15T18:04:59;96717.72;;;11.52;100.00
32747;BME280;19118;50.860;13.662;2024-02-15T18:10:00;96708.81;;;11.40;100.00
32747;BME280;19118;50.860;13.662;2024-02-15T18:15:03;96697.19;;;11.41;100.00
32747;BME280;19118;50.860;13.662;2024-02-15T18:20:04;96680.94;;;11.30;100.00
32747;BME280;19118;50.860;13.662;2024-02-15T18:25:06;96659.81;;;11.17;100.00
32747;BME280;19118;50.860;13.662;2024-02-15T18:30:08;96658.19;;;11.09;100.00
32747;BME280;19118;50.860;13.662;2024-02-15T18:35:13;96647.44;;;10.98;100.00
32747;BME280;19118;50.860;13.662;2024-02-15T18:40:15;96630.38;;;10.94;100.00
32747;BME280;19118;50.860;13.662;2024-02-15T18:45:16;96605.94;;;10.98;100.00
32747;BME280;19118;50.860;13.662;2024-02-15T18:50:17;96613.53;;;10.88;100.00
32747;BME280;19118;50.860;13.662;2024-02-15T18:55:19;96620.28;;;10.71;100.00
32747;BME280;19118;50.860;13.662;2024-02-15T19:00:20;96613.16;;;10.71;100.00
32747;BME280;19118;50.860;13.662;2024-02-15T19:05:24;96602.22;;;10.48;100.00
32747;BME280;19118;50.860;13.662;2024-02-15T19:10:26;96602.03;;;10.30;100.00
32747;BME280;19118;50.860;13.662;2024-02-15T19:15:26;96591.66;;;10.15;100.00
32747;BME280;19118;50.860;13.662;2024-02-15T19:20:26;96591.88;;;10.00;100.00
32747;BME280;19118;50.860;13.662;2024-02-15T19:25:27;96590.06;;;9.87;100.00
32747;BME280;19118;50.860;13.662;2024-02-15T19:30:27;96593.28;;;9.70;100.00
32747;BME280;19118;50.860;13.662;2024-02-15T19:35:27;96591.66;;;9.55;100.00
32747;BME280;19118;50.860;13.662;2024-02-15T19:40:30;96572.34;;;9.48;100.00
32747;BME280;19118;50.860;13.662;2024-02-15T19:45:31;96574.59;;;9.45;100.00
32747;BME280;19118;50.860;13.662;2024-02-15T19:50:37;96559.75;;;9.50;100.00
32747;BME280;19118;50.860;13.662;2024-02-15T19:55:37;96549.63;;;9.54;100.00
32747;BME280;19118;50.860;13.662;2024-02-15T20:00:38;96562.63;;;9.55;100.00
32747;BME280;19118;50.860;13.662;2024-02-15T20:05:40;96569.50;;;9.50;100.00
32747;BME280;19118;50.860;13.662;2024-02-15T20:10:40;96568.09;;;9.47;100.00
32747;BME280;19118;50.860;13.662;2024-02-15T20:15:41;96584.91;;;9.33;100.00
32747;BME280;19118;50.860;13.662;2024-02-15T20:20:41;96594.19;;;9.09;100.00
32747;BME280;19118;50.860;13.662;2024-02-15T20:25:42;96580.34;;;9.00;100.00
32747;BME280;19118;50.860;13.662;2024-02-15T20:30:44;96570.81;;;8.99;100.00
32747;BME280;19118;50.860;13.662;2024-02-15T20:35:44;96561.25;;;8.85;100.00
32747;BME280;19118;50.860;13.662;2024-02-15T20:40:45;96538.56;;;8.97;100.00
32747;BME280;19118;50.860;13.662;2024-02-15T20:45:45;96526.97;;;8.92;100.00
32747;BME280;19118;50.860;13.662;2024-02-15T20:50:45;96520.47;;;8.94;100.00
32747;BME280;19118;50.860;13.662;2024-02-15T20:55:46;96533.25;;;8.84;100.00
32747;BME280;19118;50.860;13.662;2024-02-15T21:00:47;96523.50;;;8.85;100.00
32747;BME280;19118;50.860;13.662;2024-02-15T21:05:47;96527.09;;;8.70;100.00
32747;BME280;19118;50.860;13.662;2024-02-15T21:10:47;96516.13;;;8.67;100.00
32747;BME280;19118;50.860;13.662;2024-02-15T21:15:48;96506.31;;;8.48;100.00
32747;BME280;19118;50.860;13.662;2024-02-15T21:20:48;96472.25;;;8.39;100.00
32747;BME280;19118;50.860;13.662;2024-02-15T21:25:49;96463.53;;;8.39;100.00
32747;BME280;19118;50.860;13.662;2024-02-15T21:30:49;96458.06;;;8.40;100.00
32747;BME280;19118;50.860;13.662;2024-02-15T21:35:50;96448.91;;;8.36;100.00
32747;BME280;19118;50.860;13.662;2024-02-15T21:40:50;96447.06;;;8.30;100.00
32747;BME280;19118;50.860;13.662;2024-02-15T21:45:51;96436.47;;;8.24;100.00
32747;BME280;19118;50.860;13.662;2024-02-15T21:50:52;96425.97;;;8.30;100.00
32747;BME280;19118;50.860;13.662;2024-02-15T21:55:53;96410.66;;;8.47;100.00
32747;BME280;19118;50.860;13.662;2024-02-15T22:00:53;96393.28;;;8.66;100.00
32747;BME280;19118;50.860;13.662;2024-02-15T22:05:56;96374.84;;;8.79;100.00
32747;BME280;19118;50.860;13.662;2024-02-15T22:10:57;96378.06;;;8.81;100.00
32747;BME280;19118;50.860;13.662;2024-02-15T22:15:57;96372.63;;;9.02;100.00
32747;BME280;19118;50.860;13.662;2024-02-15T22:20:57;96362.88;;;9.23;100.00
32747;BME280;19118;50.860;13.662;2024-02-15T22:25:58;96366.47;;;9.48;100.00
32747;BME280;19118;50.860;13.662;2024-02-15T22:30:58;96370.50;;;9.77;100.00
32747;BME280;19118;50.860;13.662;2024-02-15T22:35:58;96407.38;;;10.04;100.00
32747;BME280;19118;50.860;13.662;2024-02-15T22:40:59;96435.31;;;10.38;100.00
32747;BME280;19118;50.860;13.662;2024-02-15T22:45:59;96470.31;;;10.33;100.00
32747;BME280;19118;50.860;13.662;2024-02-15T22:50:59;96490.78;;;10.51;100.00
32747;BME280;19118;50.860;13.662;2024-02-15T22:56:04;96516.56;;;10.62;100.00
32747;BME280;19118;50.860;13.662;2024-02-15T23:01:05;96546.44;;;10.69;100.00
32747;BME280;19118;50.860;13.662;2024-02-15T23:06:07;96572.28;;;10.67;100.00
32747;BME280;19118;50.860;13.662;2024-02-15T23:11:08;96586.13;;;10.63;100.00
32747;BME280;19118;50.860;13.662;2024-02-15T23:16:08;96604.03;;;10.61;100.00
32747;BME280;19118;50.860;13.662;2024-02-15T23:21:09;96614.63;;;10.54;100.00
32747;BME280;19118;50.860;13.662;2024-02-15T23:26:09;96599.59;;;10.55;100.00
32747;BME280;19118;50.860;13.662;2024-02-15T23:31:09;96608.94;;;10.50;100.00
32747;BME280;19118;50.860;13.662;2024-02-15T23:36:10;96600.41;;;10.55;100.00
32747;BME280;19118;50.860;13.662;2024-02-15T23:41:29;96594.91;;;10.50;100.00
32747;BME280;19118;50.860;13.662;2024-02-15T23:46:29;96568.84;;;10.60;100.00
32747;BME280;19118;50.860;13.662;2024-02-15T23:51:30;96580.88;;;10.56;100.00
32747;BME280;19118;50.860;13.662;2024-02-15T23:56:31;96567.59;;;10.69;100.00
